< < Back
Terminal Aerodrome Forecast


Current Version              Previous Versions:   1  2  3  4  5  6  7  8  9  

Terminal Aerodrome Forecast

177
FTUS44 KHUN 251125
TAFHSV
TAF
KHSV 251125Z 2512/2612 12004KT P6SM FEW050 SCT250
     FM251600 19004KT P6SM SCT050 SCT250
     FM260100 VRB03KT P6SM FEW040 BKN250=

Latest METAR

348
SAUS80 KWBC 251100 RRB
MTRHSV
METAR KHSV 251053Z 10004KT 10SM SCT047 SCT250 24/22 A3016 RMK AO2 SLP205
T02390222


USA.gov is the U.S. government's official web portal to all federal, state and local government web resources and services.